createdAt,value
2019-04-25T00:01:18.846Z,22.19
2019-04-25T00:03:46.632Z,22.19
2019-04-25T00:06:13.615Z,22.19
2019-04-25T00:08:41.320Z,22.21
2019-04-25T00:11:11.590Z,22.20
2019-04-25T00:13:39.629Z,22.19
2019-04-25T00:16:06.914Z,22.20
2019-04-25T00:18:33.833Z,22.20
2019-04-25T00:21:02.309Z,22.18
2019-04-25T00:23:29.218Z,22.19
2019-04-25T00:26:01.370Z,22.18
2019-04-25T00:28:28.436Z,22.18
2019-04-25T00:30:55.401Z,22.19
2019-04-25T00:33:22.361Z,22.18
2019-04-25T00:35:49.621Z,22.18
2019-04-25T00:38:17.031Z,22.18
2019-04-25T00:40:44.661Z,22.19
2019-04-25T00:43:11.642Z,22.17
2019-04-25T00:45:38.542Z,22.17
2019-04-25T00:48:05.532Z,22.19
2019-04-25T00:50:32.399Z,22.19
2019-04-25T00:52:59.291Z,22.18
2019-04-25T00:55:28.898Z,22.18
2019-04-25T00:57:56.450Z,22.18
2019-04-25T01:00:24.940Z,22.17
2019-04-25T01:02:56.405Z,22.18
2019-04-25T01:05:23.442Z,22.18
2019-04-25T01:07:52.162Z,22.19
2019-04-25T01:10:19.548Z,22.18
2019-04-25T01:12:46.382Z,22.19
2019-04-25T01:15:14.692Z,22.19
2019-04-25T01:17:41.672Z,22.17
2019-04-25T01:20:08.842Z,22.18
2019-04-25T01:22:35.799Z,22.17
2019-04-25T01:25:03.770Z,22.18
2019-04-25T01:27:30.873Z,22.17
2019-04-25T01:29:57.709Z,22.18
2019-04-25T01:32:26.166Z,22.17
2019-04-25T01:34:58.587Z,22.18
2019-04-25T01:37:27.742Z,22.17
2019-04-25T01:39:56.251Z,22.17
2019-04-25T01:42:24.727Z,22.17
2019-04-25T01:44:53.862Z,22.17
2019-04-25T01:47:23.880Z,22.16
2019-04-25T01:49:50.686Z,22.16
2019-04-25T01:52:18.434Z,22.17
2019-04-25T01:54:45.372Z,22.17
2019-04-25T01:57:14.220Z,22.17
2019-04-25T01:59:41.205Z,22.16
2019-04-25T02:02:09.750Z,22.16
2019-04-25T02:04:36.782Z,22.17
2019-04-25T02:07:04.468Z,22.17
2019-04-25T02:09:31.361Z,22.17
2019-04-25T02:12:05.653Z,22.16
2019-04-25T02:14:33.655Z,22.16
2019-04-25T02:17:00.777Z,22.16
2019-04-25T02:19:28.264Z,22.15
2019-04-25T02:21:55.684Z,22.17
2019-04-25T02:24:23.703Z,22.16
2019-04-25T02:26:50.693Z,22.17
2019-04-25T02:29:17.605Z,22.16
2019-04-25T02:31:45.168Z,22.17
2019-04-25T02:34:15.237Z,22.16
2019-04-25T02:36:40.738Z,22.16
2019-04-25T02:39:09.091Z,22.17
2019-04-25T02:41:36.135Z,22.15
2019-04-25T02:44:09.249Z,22.15
2019-04-25T02:46:37.183Z,22.16
2019-04-25T02:49:09.705Z,22.16
2019-04-25T02:51:41.398Z,22.15
2019-04-25T02:54:08.385Z,22.16
2019-04-25T02:56:38.687Z,22.15
2019-04-25T02:59:06.971Z,22.15
2019-04-25T03:01:34.222Z,22.15
2019-04-25T03:04:01.323Z,22.15
2019-04-25T03:06:28.859Z,22.15
2019-04-25T03:08:57.814Z,22.15
2019-04-25T03:11:24.652Z,22.15
2019-04-25T03:13:54.350Z,22.15
2019-04-25T03:16:20.163Z,22.15
2019-04-25T03:19:08.267Z,22.14
2019-04-25T03:21:37.477Z,22.15
2019-04-25T03:24:09.078Z,22.15
2019-04-25T03:26:40.026Z,22.14
2019-04-25T03:29:03.880Z,22.15
2019-04-25T03:31:30.917Z,22.14
2019-04-25T03:33:57.915Z,22.14
2019-04-25T03:36:24.811Z,22.13
2019-04-25T03:38:51.629Z,22.15
2019-04-25T03:41:18.574Z,22.15
2019-04-25T03:43:45.452Z,22.15
2019-04-25T03:46:14.101Z,22.14
2019-04-25T03:48:41.157Z,22.14
2019-04-25T03:51:08.086Z,22.13
2019-04-25T03:53:34.974Z,22.14
2019-04-25T03:56:02.749Z,22.14
2019-04-25T03:58:30.583Z,22.12
2019-04-25T04:00:57.390Z,22.14
2019-04-25T04:03:24.271Z,22.14
2019-04-25T04:05:51.163Z,22.13
2019-04-25T04:08:18.014Z,22.13
2019-04-25T04:10:44.953Z,22.13
2019-04-25T04:13:12.273Z,22.13
2019-04-25T04:15:39.296Z,22.13
2019-04-25T04:18:10.715Z,22.14
2019-04-25T04:20:45.423Z,22.12
2019-04-25T04:23:25.962Z,22.13
2019-04-25T04:25:53.068Z,22.13
2019-04-25T04:28:21.422Z,22.13
2019-04-25T04:30:48.258Z,22.13
2019-04-25T04:33:25.787Z,22.12
2019-04-25T04:35:44.146Z,22.13
2019-04-25T04:38:11.666Z,22.12
2019-04-25T04:40:38.720Z,22.13
2019-04-25T04:43:05.808Z,22.13
2019-04-25T04:45:34.392Z,22.12
2019-04-25T04:48:03.210Z,22.13
2019-04-25T04:50:30.305Z,22.12
2019-04-25T04:52:57.357Z,22.12
2019-04-25T04:55:24.393Z,22.12
2019-04-25T04:57:51.399Z,22.12
2019-04-25T05:00:18.668Z,22.11
2019-04-25T05:02:53.412Z,22.11
2019-04-25T05:05:24.934Z,22.13
2019-04-25T05:08:05.419Z,22.12
2019-04-25T05:10:33.268Z,22.12
2019-04-25T05:13:00.416Z,22.12
2019-04-25T05:15:27.347Z,22.11
2019-04-25T05:17:54.416Z,22.11
2019-04-25T05:20:22.168Z,22.11
2019-04-25T05:22:49.245Z,22.11
2019-04-25T05:25:17.636Z,22.11
2019-04-25T05:27:58.560Z,22.11
2019-04-25T05:30:16.606Z,22.11
2019-04-25T05:32:44.204Z,22.11
2019-04-25T05:35:11.326Z,22.11
2019-04-25T05:37:38.262Z,22.11
2019-04-25T05:40:05.661Z,22.11
2019-04-25T05:42:54.274Z,22.10
2019-04-25T05:45:31.636Z,22.10
2019-04-25T05:47:58.652Z,22.11
2019-04-25T05:50:27.267Z,22.11
2019-04-25T05:52:55.374Z,22.10
2019-04-25T05:55:23.882Z,22.10
2019-04-25T05:57:51.127Z,22.10
2019-04-25T06:00:18.959Z,22.11
2019-04-25T06:02:46.266Z,22.10
2019-04-25T06:05:13.394Z,22.10
2019-04-25T06:07:40.311Z,22.10
2019-04-25T06:10:25.721Z,22.10
2019-04-25T06:13:13.900Z,22.11
2019-04-25T06:15:43.288Z,22.08
2019-04-25T06:18:30.010Z,22.09
2019-04-25T06:20:56.878Z,22.10
2019-04-25T06:23:26.852Z,22.08
2019-04-25T06:25:53.903Z,22.08
2019-04-25T06:28:28.473Z,22.10
2019-04-25T06:30:55.392Z,22.09
2019-04-25T06:33:24.683Z,22.09
2019-04-25T06:35:51.926Z,22.10
2019-04-25T06:38:18.811Z,22.10
2019-04-25T06:40:45.696Z,22.10
2019-04-25T06:43:13.481Z,22.09
2019-04-25T06:45:44.970Z,22.10
2019-04-25T06:48:20.328Z,22.09
2019-04-25T06:50:48.108Z,22.10
2019-04-25T06:53:16.230Z,22.09
2019-04-25T06:55:53.533Z,22.10
2019-04-25T06:58:21.417Z,22.08
2019-04-25T07:00:58.779Z,22.08
2019-04-25T07:03:20.781Z,22.11
2019-04-25T07:05:47.773Z,22.08
2019-04-25T07:08:14.687Z,22.10
2019-04-25T07:10:41.608Z,22.10
2019-04-25T07:13:08.412Z,22.09
2019-04-25T07:15:35.338Z,22.10
2019-04-25T07:18:03.805Z,22.10
2019-04-25T07:20:30.891Z,22.09
2019-04-25T07:22:57.764Z,22.08
2019-04-25T07:25:27.259Z,22.10
2019-04-25T07:28:23.812Z,22.10
2019-04-25T07:30:50.126Z,22.10
2019-04-25T07:33:16.154Z,22.08
2019-04-25T07:35:43.456Z,22.10
2019-04-25T07:38:10.459Z,22.08
2019-04-25T07:40:37.401Z,22.09
2019-04-25T07:43:04.868Z,22.09
2019-04-25T07:45:33.692Z,22.09
2019-04-25T07:48:00.520Z,22.10
2019-04-25T07:50:28.504Z,22.09
2019-04-25T07:52:55.666Z,22.08
2019-04-25T07:55:23.355Z,22.08
2019-04-25T07:57:50.314Z,22.08
2019-04-25T08:00:17.148Z,22.09
2019-04-25T08:02:44.022Z,22.10
2019-04-25T08:05:11.302Z,22.09
2019-04-25T08:07:38.136Z,22.14
2019-04-25T08:10:05.048Z,22.16
2019-04-25T08:12:32.860Z,22.20
2019-04-25T08:15:04.992Z,22.21
2019-04-25T08:17:49.620Z,22.14
2019-04-25T08:20:16.527Z,21.86
2019-04-25T08:22:55.737Z,21.65
2019-04-25T08:25:13.703Z,21.54
2019-04-25T08:27:40.405Z,21.49
2019-04-25T08:30:07.344Z,21.46
2019-04-25T08:32:35.527Z,21.47
2019-04-25T08:35:03.833Z,21.42
2019-04-25T08:37:31.707Z,21.42
2019-04-25T08:39:58.657Z,21.41
2019-04-25T08:42:25.508Z,21.41
2019-04-25T08:44:53.451Z,21.46
2019-04-25T08:47:20.471Z,21.46
2019-04-25T08:49:49.611Z,21.48
2019-04-25T08:52:16.591Z,21.46
2019-04-25T08:54:50.871Z,21.46
2019-04-25T08:57:23.629Z,21.48
2019-04-25T08:59:53.021Z,21.49
2019-04-25T09:02:24.464Z,21.51
2019-04-25T09:04:55.731Z,21.58
2019-04-25T09:07:23.572Z,21.63
2019-04-25T09:09:50.424Z,21.63
2019-04-25T09:12:17.204Z,21.61
2019-04-25T09:14:46.300Z,21.67
2019-04-25T09:17:14.175Z,21.67
2019-04-25T09:19:41.989Z,21.71
2019-04-25T09:22:08.858Z,21.72
2019-04-25T09:24:36.838Z,21.76
2019-04-25T09:27:04.126Z,21.84
2019-04-25T09:29:30.894Z,21.89
2019-04-25T09:31:57.697Z,21.90
2019-04-25T09:34:24.481Z,21.90
2019-04-25T09:36:51.308Z,21.89
2019-04-25T09:39:19.722Z,21.92
2019-04-25T09:41:46.494Z,21.90
2019-04-25T09:44:14.928Z,21.88
2019-04-25T09:46:41.868Z,21.87
2019-04-25T09:49:23.829Z,21.86
2019-04-25T09:51:53.434Z,21.84
2019-04-25T09:54:40.397Z,21.86
2019-04-25T09:57:08.815Z,21.86
2019-04-25T09:59:37.391Z,21.86
2019-04-25T10:02:04.688Z,21.87
2019-04-25T10:04:34.492Z,21.89
2019-04-25T10:06:59.978Z,21.87
2019-04-25T10:09:26.785Z,21.87
2019-04-25T10:11:54.639Z,21.88
2019-04-25T10:14:21.717Z,21.88
2019-04-25T10:16:48.511Z,21.88
2019-04-25T10:19:15.315Z,21.88
2019-04-25T10:21:42.089Z,21.89
2019-04-25T10:24:08.984Z,21.93
2019-04-25T10:26:35.817Z,22.00
2019-04-25T10:29:03.379Z,22.06
2019-04-25T10:31:30.179Z,22.04
2019-04-25T10:33:56.972Z,22.04
2019-04-25T10:36:24.638Z,22.03
2019-04-25T10:39:04.318Z,22.03
2019-04-25T10:41:20.083Z,22.02
2019-04-25T10:43:46.926Z,22.02
2019-04-25T10:46:14.917Z,22.02
2019-04-25T10:48:42.031Z,22.02
2019-04-25T10:51:08.812Z,22.03
2019-04-25T10:53:35.587Z,22.02
2019-04-25T10:56:05.549Z,22.03
2019-04-25T10:58:30.885Z,22.02
2019-04-25T11:00:57.840Z,22.03
2019-04-25T11:03:38.205Z,22.02
2019-04-25T11:06:05.041Z,22.03
2019-04-25T11:08:31.824Z,22.03
2019-04-25T11:10:58.935Z,22.03
2019-04-25T11:13:25.734Z,22.03
2019-04-25T11:15:52.511Z,22.03
2019-04-25T11:18:19.382Z,22.04
2019-04-25T11:20:46.240Z,22.04
2019-04-25T11:23:13.965Z,22.05
2019-04-25T11:25:41.564Z,22.05
2019-04-25T11:28:08.634Z,22.05
2019-04-25T11:30:35.423Z,22.05
2019-04-25T11:33:03.611Z,22.06
2019-04-25T11:35:30.666Z,22.06
2019-04-25T11:37:59.056Z,22.04
2019-04-25T11:40:27.494Z,22.05
2019-04-25T11:42:54.656Z,22.05
2019-04-25T11:45:21.522Z,22.05
2019-04-25T11:47:48.438Z,22.07
2019-04-25T11:50:15.271Z,22.06
2019-04-25T11:52:43.641Z,22.06
2019-04-25T11:55:10.583Z,22.06
2019-04-25T11:57:37.336Z,22.07
2019-04-25T12:00:04.343Z,22.06
2019-04-25T12:02:31.235Z,22.07
2019-04-25T12:04:58.019Z,22.07
2019-04-25T12:07:25.038Z,22.06
2019-04-25T12:09:52.232Z,22.07
2019-04-25T12:12:19.208Z,22.08
2019-04-25T12:14:46.392Z,22.07
2019-04-25T12:17:13.578Z,22.07
2019-04-25T12:19:40.350Z,22.07
2019-04-25T12:22:07.130Z,22.06
2019-04-25T12:24:33.904Z,22.06
2019-04-25T12:27:00.705Z,22.07
2019-04-25T12:29:27.496Z,22.07
2019-04-25T12:31:54.922Z,22.07
2019-04-25T12:34:21.760Z,22.08
2019-04-25T12:36:48.542Z,22.08
2019-04-25T12:39:15.606Z,22.08
2019-04-25T12:41:44.236Z,22.08
2019-04-25T12:44:12.532Z,22.07
2019-04-25T12:46:43.877Z,22.08
2019-04-25T12:49:10.664Z,22.08
2019-04-25T12:51:37.452Z,22.09
2019-04-25T12:54:04.225Z,22.08
2019-04-25T12:56:31.078Z,22.08
2019-04-25T12:58:57.874Z,22.08
2019-04-25T13:01:24.962Z,22.09
2019-04-25T13:03:51.819Z,22.08
2019-04-25T13:06:18.594Z,22.08
2019-04-25T13:08:45.379Z,22.09
2019-04-25T13:11:13.864Z,22.08
2019-04-25T13:13:40.722Z,22.10
2019-04-25T13:16:07.785Z,22.10
2019-04-25T13:18:34.630Z,22.10
2019-04-25T13:21:01.467Z,22.10
2019-04-25T13:23:28.250Z,22.08
2019-04-25T13:25:55.841Z,22.10
2019-04-25T13:28:27.472Z,22.11
2019-04-25T13:31:12.370Z,22.10
2019-04-25T13:33:38.128Z,22.10
2019-04-25T13:36:15.539Z,22.10
2019-04-25T13:38:43.626Z,22.11
2019-04-25T13:41:10.819Z,22.11
2019-04-25T13:43:37.764Z,22.11
2019-04-25T13:46:04.536Z,22.10
2019-04-25T13:48:32.288Z,22.11
2019-04-25T13:50:59.184Z,22.10
2019-04-25T13:53:26.043Z,22.11
2019-04-25T13:55:52.818Z,22.11
2019-04-25T13:58:19.935Z,22.10
2019-04-25T14:00:47.085Z,22.11
2019-04-25T14:03:13.874Z,22.12
2019-04-25T14:05:40.839Z,22.11
2019-04-25T14:08:07.638Z,22.10
2019-04-25T14:10:34.467Z,22.11
2019-04-25T14:13:01.394Z,22.13
2019-04-25T14:15:29.644Z,22.12
2019-04-25T14:18:13.790Z,22.12
2019-04-25T14:20:45.314Z,22.11
2019-04-25T14:23:13.479Z,22.12
2019-04-25T14:25:40.743Z,22.11
2019-04-25T14:28:08.010Z,22.12
2019-04-25T14:30:35.964Z,22.12
2019-04-25T14:33:03.626Z,22.12
2019-04-25T14:35:31.158Z,22.12
2019-04-25T14:37:58.026Z,22.12
2019-04-25T14:40:25.867Z,22.12
2019-04-25T14:42:53.742Z,22.12
2019-04-25T14:45:21.553Z,22.11
2019-04-25T14:47:49.379Z,22.13
2019-04-25T14:50:16.182Z,22.13
2019-04-25T14:52:42.944Z,22.13
2019-04-25T14:55:27.651Z,22.13
2019-04-25T14:57:54.831Z,22.13
2019-04-25T15:00:26.147Z,22.12
2019-04-25T15:02:54.232Z,22.13
2019-04-25T15:05:21.117Z,22.13
2019-04-25T15:07:48.305Z,22.13
2019-04-25T15:10:15.177Z,22.12
2019-04-25T15:12:41.958Z,22.13
2019-04-25T15:15:08.729Z,22.13
2019-04-25T15:17:45.241Z,22.12
2019-04-25T15:20:04.005Z,22.13
2019-04-25T15:22:30.798Z,22.12
2019-04-25T15:24:57.579Z,22.13
2019-04-25T15:27:25.112Z,22.13
2019-04-25T15:29:52.114Z,22.14
2019-04-25T15:32:20.530Z,22.13
2019-04-25T15:34:54.942Z,22.13
2019-04-25T15:37:35.381Z,22.13
2019-04-25T15:40:03.803Z,22.13
2019-04-25T15:42:38.862Z,22.13
2019-04-25T15:45:16.466Z,22.13
2019-04-25T15:47:45.450Z,22.13
2019-04-25T15:50:12.136Z,22.13
2019-04-25T15:52:39.105Z,22.13
2019-04-25T15:55:07.362Z,22.14
2019-04-25T15:57:34.545Z,22.14
2019-04-25T16:00:01.472Z,22.13
2019-04-25T16:02:28.775Z,22.13
2019-04-25T16:04:55.762Z,22.13
2019-04-25T16:07:22.899Z,22.13
2019-04-25T16:09:49.694Z,22.14
2019-04-25T16:12:16.833Z,22.14
2019-04-25T16:14:43.643Z,22.13
2019-04-25T16:17:10.489Z,22.14
2019-04-25T16:19:37.283Z,22.14
2019-04-25T16:22:04.225Z,22.13
2019-04-25T16:24:31.118Z,22.14
2019-04-25T16:26:58.862Z,22.14
2019-04-25T16:29:25.652Z,22.10
2019-04-25T16:31:52.516Z,22.18
2019-04-25T16:34:19.288Z,22.19
2019-04-25T16:36:46.076Z,22.18
2019-04-25T16:39:20.530Z,22.19
2019-04-25T16:41:47.391Z,22.17
2019-04-25T16:44:15.847Z,22.17
2019-04-25T16:46:42.740Z,22.16
2019-04-25T16:49:09.560Z,22.16
2019-04-25T16:51:36.338Z,22.16
2019-04-25T16:54:03.122Z,22.16
2019-04-25T16:56:30.589Z,22.16
2019-04-25T16:58:57.471Z,22.15
2019-04-25T17:01:24.228Z,22.16
2019-04-25T17:03:51.013Z,22.16
2019-04-25T17:06:17.827Z,22.15
2019-04-25T17:08:44.680Z,22.16
2019-04-25T17:11:11.734Z,22.17
2019-04-25T17:13:40.142Z,22.16
2019-04-25T17:16:14.323Z,22.17
2019-04-25T17:18:48.718Z,22.17
2019-04-25T17:21:15.573Z,22.17
2019-04-25T17:23:42.368Z,22.17
2019-04-25T17:26:09.585Z,22.17
2019-04-25T17:28:39.079Z,22.17
2019-04-25T17:31:16.712Z,22.17
2019-04-25T17:34:03.265Z,22.17
2019-04-25T17:36:33.177Z,22.17
2019-04-25T17:39:01.821Z,22.17
2019-04-25T17:41:28.752Z,22.17
2019-04-25T17:43:55.542Z,22.17
2019-04-25T17:46:23.621Z,22.17
2019-04-25T17:48:50.399Z,22.17
2019-04-25T17:51:17.190Z,22.18
2019-04-25T17:53:43.966Z,22.18
2019-04-25T17:56:10.773Z,22.17
2019-04-25T17:58:37.549Z,22.17
2019-04-25T18:01:04.323Z,22.20
2019-04-25T18:03:31.102Z,22.17
2019-04-25T18:05:57.877Z,22.17
2019-04-25T18:08:24.924Z,22.16
2019-04-25T18:10:51.684Z,22.15
2019-04-25T18:13:18.481Z,22.15
2019-04-25T18:16:04.976Z,22.15
2019-04-25T18:18:42.141Z,22.16
2019-04-25T18:21:08.918Z,22.15
2019-04-25T18:23:52.188Z,22.15
2019-04-25T18:26:23.590Z,22.16
2019-04-25T18:28:51.991Z,22.14
2019-04-25T18:31:18.783Z,22.14
2019-04-25T18:33:45.970Z,22.14
2019-04-25T18:36:30.394Z,22.13
2019-04-25T18:39:01.713Z,22.11
2019-04-25T18:41:39.780Z,22.07
2019-04-25T18:44:08.228Z,22.07
2019-04-25T18:46:36.999Z,22.05
2019-04-25T18:49:03.884Z,22.05
2019-04-25T18:51:30.678Z,22.04
2019-04-25T18:53:59.100Z,22.03
2019-04-25T18:56:30.441Z,22.02
2019-04-25T18:59:14.921Z,22.01
2019-04-25T19:01:55.323Z,22.01
2019-04-25T19:04:26.417Z,22.01
2019-04-25T19:06:58.023Z,22.05
2019-04-25T19:09:21.682Z,22.06
2019-04-25T19:11:48.458Z,21.93
2019-04-25T19:14:15.254Z,21.52
2019-04-25T19:16:42.951Z,21.28
2019-04-25T19:19:09.902Z,21.51
2019-04-25T19:21:36.673Z,21.70
2019-04-25T19:24:03.511Z,21.83
2019-04-25T19:26:30.282Z,21.92
2019-04-25T19:28:57.067Z,21.98
2019-04-25T19:31:23.901Z,22.01
2019-04-25T19:33:51.702Z,22.03
2019-04-25T19:36:19.350Z,22.05
2019-04-25T19:38:46.333Z,22.05
2019-04-25T19:41:23.970Z,22.06
2019-04-25T19:44:01.704Z,22.07
2019-04-25T19:46:41.221Z,22.07
2019-04-25T19:49:09.587Z,22.07
2019-04-25T19:51:36.409Z,22.08
2019-04-25T19:54:03.189Z,22.08
2019-04-25T19:56:29.997Z,22.08
2019-04-25T19:58:56.841Z,22.07
2019-04-25T20:01:23.814Z,22.07
2019-04-25T20:03:56.822Z,22.08
2019-04-25T20:06:28.376Z,22.08
2019-04-25T20:08:56.873Z,22.09
2019-04-25T20:11:25.355Z,22.10
2019-04-25T20:13:53.302Z,22.07
2019-04-25T20:16:20.139Z,22.08
2019-04-25T20:18:47.715Z,22.10
2019-04-25T20:21:14.632Z,22.10
2019-04-25T20:23:41.424Z,22.09
2019-04-25T20:26:08.314Z,22.09
2019-04-25T20:28:35.103Z,22.10
2019-04-25T20:31:01.941Z,22.10
2019-04-25T20:33:28.725Z,22.10
2019-04-25T20:35:55.528Z,22.11
2019-04-25T20:38:22.371Z,22.11
2019-04-25T20:40:49.583Z,22.12
2019-04-25T20:43:16.557Z,22.13
2019-04-25T20:45:43.363Z,22.13
2019-04-25T20:48:11.153Z,22.14
2019-04-25T20:50:37.951Z,22.14
2019-04-25T20:53:04.786Z,22.14
2019-04-25T20:55:31.590Z,22.13
2019-04-25T20:57:58.462Z,22.13
2019-04-25T21:00:25.547Z,22.13
2019-04-25T21:02:52.402Z,22.14
2019-04-25T21:05:19.164Z,22.13
2019-04-25T21:07:46.071Z,22.13
2019-04-25T21:10:12.917Z,22.13
2019-04-25T21:12:39.742Z,22.14
2019-04-25T21:15:20.069Z,22.14
2019-04-25T21:17:52.082Z,22.14
2019-04-25T21:20:19.132Z,22.14
2019-04-25T21:22:45.928Z,22.14
2019-04-25T21:25:12.870Z,22.13
2019-04-25T21:27:40.280Z,22.14
2019-04-25T21:30:07.332Z,22.14
2019-04-25T21:32:35.836Z,22.13
2019-04-25T21:35:03.047Z,22.14
2019-04-25T21:37:29.858Z,22.14
2019-04-25T21:40:02.534Z,22.14
2019-04-25T21:42:34.286Z,22.14
2019-04-25T21:45:02.469Z,22.16
2019-04-25T21:47:29.661Z,22.15
2019-04-25T21:49:56.788Z,22.14
2019-04-25T21:52:24.002Z,22.14
2019-04-25T21:54:51.103Z,22.15
2019-04-25T21:57:18.175Z,22.15
2019-04-25T21:59:45.127Z,22.15
2019-04-25T22:02:12.751Z,22.15
2019-04-25T22:04:41.748Z,22.15
2019-04-25T22:07:08.373Z,22.15
2019-04-25T22:09:35.527Z,22.16
2019-04-25T22:12:03.198Z,22.15
2019-04-25T22:14:30.077Z,22.15
2019-04-25T22:16:57.667Z,22.14
2019-04-25T22:19:24.951Z,22.15
2019-04-25T22:21:52.033Z,22.15
2019-04-25T22:24:18.910Z,22.15
2019-04-25T22:26:47.461Z,22.15
2019-04-25T22:29:14.369Z,22.17
2019-04-25T22:31:48.619Z,22.15
2019-04-25T22:34:17.069Z,22.16
2019-04-25T22:36:44.147Z,22.16
2019-04-25T22:39:11.666Z,22.16
2019-04-25T22:41:38.744Z,22.16
2019-04-25T22:44:06.476Z,22.15
2019-04-25T22:46:33.543Z,22.16
2019-04-25T22:49:01.348Z,22.16
2019-04-25T22:51:28.198Z,22.16
2019-04-25T22:53:55.356Z,22.15
2019-04-25T22:56:22.139Z,22.15
2019-04-25T22:58:48.902Z,22.16
2019-04-25T23:01:17.724Z,22.16
2019-04-25T23:03:46.171Z,22.16
2019-04-25T23:06:13.247Z,22.16
2019-04-25T23:08:40.061Z,22.16
2019-04-25T23:11:06.925Z,22.15
2019-04-25T23:13:33.773Z,22.16
2019-04-25T23:16:00.836Z,22.16
2019-04-25T23:18:27.680Z,22.16
2019-04-25T23:20:54.490Z,22.17
2019-04-25T23:23:21.571Z,22.17
2019-04-25T23:25:56.024Z,22.16
2019-04-25T23:28:24.853Z,22.16
2019-04-25T23:30:59.521Z,22.16
2019-04-25T23:33:26.457Z,22.16
2019-04-25T23:35:53.347Z,22.16
2019-04-25T23:38:20.263Z,22.15
2019-04-25T23:40:47.149Z,22.15
2019-04-25T23:43:14.359Z,22.16
2019-04-25T23:45:41.180Z,22.16
2019-04-25T23:48:08.349Z,22.17
2019-04-25T23:50:35.199Z,22.17
2019-04-25T23:53:02.011Z,22.16
2019-04-25T23:55:28.901Z,22.16
2019-04-25T23:57:55.677Z,22.16
